Snoqualmie River: Snoqualmie Falls station

back to: Snoqualmie river
Snoqualmie Falls station Summary - (NOAA Hydrograph: SQUW1)
flood stage: 12.88 ft
Latest reading:
Tue02/20 02:25 pm 5.52 ft 2263 cfs (-132/hr)
Past 24hr max:
Tue02/20 01:10 pm 5.54 ft 2285 cfs
Forecasted crests: (published Tue 02/20/18 08:20 am)
Mon02/26 10:00 am 4.55 ft 1351 cfs
Tue02/27 10:00 am 4.53 ft 1333 cfs

Snoqualmie Falls station Details

Latest Readings

Last 100 Readings:
Tue02/20 02:25 pm 5.52 ft 2263 cfs
Tue02/20 02:20 pm 5.53 ft 2274 cfs
Tue02/20 02:15 pm 5.53 ft 2274 cfs
Tue02/20 02:10 pm 5.53 ft 2274 cfs
Tue02/20 02:05 pm 5.52 ft 2263 cfs
Tue02/20 02:00 pm 5.53 ft 2274 cfs
Tue02/20 01:55 pm 5.52 ft 2263 cfs
Tue02/20 01:50 pm 5.53 ft 2274 cfs
Tue02/20 01:45 pm 5.53 ft 2274 cfs
Tue02/20 01:40 pm 5.53 ft 2274 cfs
Tue02/20 01:35 pm 5.53 ft 2274 cfs
Tue02/20 01:30 pm 5.53 ft 2274 cfs
Tue02/20 01:25 pm 5.52 ft 2263 cfs
Tue02/20 01:20 pm 5.53 ft 2274 cfs
Tue02/20 01:15 pm 5.53 ft 2274 cfs
Tue02/20 01:10 pm 5.54 ft 2285 cfs
Tue02/20 01:05 pm 5.53 ft 2274 cfs
Tue02/20 01:00 pm 5.53 ft 2274 cfs
Mon02/19 01:25 pm 5.95 ft 2760 cfs
Mon02/19 01:20 pm 5.92 ft 2723 cfs
Mon02/19 01:15 pm 5.95 ft 2760 cfs
Mon02/19 01:10 pm 5.95 ft 2760 cfs
Mon02/19 01:05 pm 5.96 ft 2772 cfs
Mon02/19 01:00 pm 5.96 ft 2772 cfs
Mon02/19 12:55 pm 5.95 ft 2760 cfs
Mon02/19 12:50 pm 5.97 ft 2785 cfs
Mon02/19 12:45 pm 5.97 ft 2785 cfs
Mon02/19 12:40 pm 5.97 ft 2785 cfs
Mon02/19 12:35 pm 5.96 ft 2772 cfs
Mon02/19 12:30 pm 5.98 ft 2797 cfs
Mon02/19 12:25 pm 5.98 ft 2797 cfs
Mon02/19 12:20 pm 5.99 ft 2809 cfs
Mon02/19 12:15 pm 5.99 ft 2809 cfs
Mon02/19 12:10 pm 5.97 ft 2785 cfs
Mon02/19 12:05 pm 5.98 ft 2797 cfs
Mon02/19 12:00 pm 5.98 ft 2797 cfs
Mon02/19 11:55 am 5.98 ft 2797 cfs
Mon02/19 11:50 am 5.99 ft 2809 cfs
Mon02/19 11:45 am 5.97 ft 2785 cfs
Mon02/19 11:40 am 5.98 ft 2797 cfs
Mon02/19 11:35 am 5.98 ft 2797 cfs
Mon02/19 11:30 am 5.96 ft 2772 cfs
Mon02/19 11:25 am 5.97 ft 2785 cfs
Mon02/19 11:20 am 5.96 ft 2772 cfs
Mon02/19 11:15 am 5.97 ft 2785 cfs
Mon02/19 11:10 am 5.96 ft 2772 cfs
Mon02/19 11:05 am 5.96 ft 2772 cfs
Mon02/19 11:00 am 5.94 ft 2747 cfs
Mon02/19 10:55 am 5.95 ft 2760 cfs
Mon02/19 10:50 am 5.95 ft 2760 cfs
Mon02/19 10:45 am 5.94 ft 2747 cfs
Mon02/19 10:40 am 5.94 ft 2747 cfs
Mon02/19 10:35 am 5.94 ft 2747 cfs
Mon02/19 10:30 am 5.95 ft 2760 cfs
Mon02/19 10:25 am 5.94 ft 2747 cfs
Mon02/19 10:20 am 5.94 ft 2747 cfs
Mon02/19 10:15 am 5.95 ft 2760 cfs
Mon02/19 10:10 am 5.95 ft 2760 cfs
Mon02/19 10:05 am 5.95 ft 2760 cfs
Mon02/19 10:00 am 5.97 ft 2785 cfs
Mon02/19 09:55 am 5.96 ft 2772 cfs
Mon02/19 09:50 am 5.97 ft 2785 cfs
Mon02/19 09:45 am 5.97 ft 2785 cfs
Mon02/19 09:40 am 5.97 ft 2785 cfs
Mon02/19 09:35 am 5.99 ft 2809 cfs
Mon02/19 09:30 am 5.99 ft 2809 cfs
Mon02/19 09:25 am 6.01 ft 2834 cfs
Mon02/19 09:20 am 6.0 ft 2822 cfs
Mon02/19 09:15 am 6.01 ft 2834 cfs
Mon02/19 09:10 am 6.02 ft 2846 cfs
Mon02/19 09:05 am 6.01 ft 2834 cfs
Mon02/19 09:00 am 6.02 ft 2846 cfs
Mon02/19 08:55 am 6.02 ft 2846 cfs
Mon02/19 08:50 am 6.03 ft 2859 cfs
Mon02/19 08:45 am 6.03 ft 2859 cfs
Mon02/19 08:40 am 6.03 ft 2859 cfs
Mon02/19 08:35 am 6.03 ft 2859 cfs
Mon02/19 08:30 am 6.03 ft 2859 cfs
Mon02/19 08:25 am 6.03 ft 2859 cfs
Mon02/19 08:20 am 6.05 ft 2883 cfs
Mon02/19 08:15 am 6.04 ft 2871 cfs
Mon02/19 08:10 am 6.04 ft 2871 cfs
Mon02/19 08:05 am 6.05 ft 2883 cfs
Mon02/19 08:00 am 6.05 ft 2883 cfs
Mon02/19 07:55 am 6.05 ft 2883 cfs
Mon02/19 07:50 am 6.06 ft 2896 cfs
Mon02/19 07:45 am 6.05 ft 2883 cfs
Mon02/19 07:40 am 6.06 ft 2896 cfs
Mon02/19 07:35 am 6.06 ft 2896 cfs
Mon02/19 07:30 am 6.06 ft 2896 cfs
Mon02/19 07:25 am 6.07 ft 2908 cfs
Mon02/19 07:20 am 6.07 ft 2908 cfs
Mon02/19 07:15 am 6.07 ft 2908 cfs
Mon02/19 07:10 am 6.07 ft 2908 cfs
Mon02/19 07:05 am 6.08 ft 2921 cfs
Mon02/19 07:00 am 6.08 ft 2921 cfs
Mon02/19 06:55 am 6.08 ft 2921 cfs
Mon02/19 06:50 am 6.09 ft 2933 cfs
Mon02/19 06:45 am 6.09 ft 2933 cfs
Mon02/19 06:40 am 6.08 ft 2921 cfs

Latest Forecasts

Currently Forecasted Readings:
Tue02/20 10:00 am 5.52 ft 2260 cfs
Tue02/20 04:00 pm 5.43 ft 2171 cfs
Tue02/20 10:00 pm 5.36 ft 2098 cfs
Wed02/21 04:00 am 5.29 ft 2023 cfs
Wed02/21 10:00 am 5.23 ft 1956 cfs
Wed02/21 04:00 pm 5.17 ft 1898 cfs
Wed02/21 10:00 pm 5.11 ft 1844 cfs
Thu02/22 04:00 am 5.06 ft 1795 cfs
Thu02/22 10:00 am 5.01 ft 1748 cfs
Thu02/22 04:00 pm 4.96 ft 1705 cfs
Thu02/22 10:00 pm 4.92 ft 1666 cfs
Fri02/23 04:00 am 4.88 ft 1627 cfs
Fri02/23 10:00 am 4.84 ft 1590 cfs
Fri02/23 04:00 pm 4.8 ft 1555 cfs
Fri02/23 10:00 pm 4.76 ft 1523 cfs
Sat02/24 04:00 am 4.72 ft 1494 cfs
Sat02/24 10:00 am 4.69 ft 1467 cfs
Sat02/24 04:00 pm 4.66 ft 1437 cfs
Sat02/24 10:00 pm 4.62 ft 1407 cfs
Sun02/25 04:00 am 4.59 ft 1382 cfs
Sun02/25 10:00 am 4.57 ft 1361 cfs
Sun02/25 04:00 pm 4.54 ft 1339 cfs
Sun02/25 10:00 pm 4.51 ft 1320 cfs
Mon02/26 04:00 am 4.52 ft 1327 cfs
Mon02/26 10:00 am 4.55 ft 1351 cfs
Mon02/26 04:00 pm 4.54 ft 1344 cfs
Mon02/26 10:00 pm 4.51 ft 1321 cfs
Tue02/27 04:00 am 4.52 ft 1326 cfs
Tue02/27 10:00 am 4.53 ft 1333 cfs
Tue02/27 04:00 pm 4.49 ft 1303 cfs
Tue02/27 10:00 pm 4.43 ft 1253 cfs
Wed02/28 04:00 am 4.37 ft 1208 cfs
Wed02/28 10:00 am 4.31 ft 1172 cfs
Wed02/28 04:00 pm 4.27 ft 1142 cfs
Wed02/28 10:00 pm 4.23 ft 1117 cfs
Thu03/01 04:00 am 4.19 ft 1094 cfs
Thu03/01 10:00 am 4.16 ft 1072 cfs
Thu03/01 04:00 pm 4.13 ft 1052 cfs
Thu03/01 10:00 pm 4.1 ft 1035 cfs
Fri03/02 04:00 am 4.07 ft 1018 cfs

Snoqualmie River flood gauge data supplied by the
National Weather Service Northwest River Forecast Center.

Sign up for Floodzilla alerts.